Terminal Aerodrome Forecast
Issued by NWS La Crosse, WI

Home | Current Version | Previous Version | Text Only | Print | Product List | Glossary On
Versions: 1 2 3 4 5 6 7 8 9 10 11 12 13 14 15 16 17 18 19 20 21 22 23 24 25 26 27 28 29 30 31 32 33 34 35 36 37
000
FTUS43 KARX 292334
TAFLSE
TAF
KLSE 292334Z 3000/3024 33010KT P6SM VCTS SCT011 BKN040CB
      TEMPO 3000/3002 30010G20KT 4SM -TSRA BKN030CB
     FM300200 34005KT P6SM -SHRA BKN025
     FM300800 34011KT P6SM OVC015
     FM301300 35014G21KT P6SM OVC015
     FM302100 01009KT P6SM SCT030=

USA.gov is the U.S. government's official web portal to all federal, state and local government web resources and services.